Aérodrome :
LOGIN :

S'inscrire | Disclaimer

   EN    FR    IT 

 










Légende :    VFR   VFR Marginal   IFR   IFR Intensif   IFR Très Intensif
Visi : 
Plafond : 
>= 8 km
>= 3000ft
5 à 8 km
1000 à 3000 ft
1500m à 5 km
500 à 1000 ft
800 à 1500m
200 à 500 ft
< 800m
< 200 ft
Symboles :   Orages  Brouillard  Fortes neiges  Fortes précipitations  Vent > 20 kt
SIGMETs :   Divers  Orages  Givrage  Turbulence  Onde Orograph.  Cendres Volcan.







- Altitude de l'aérodrome : 1000 ft
- Code IATA : PEV


LHPP - Pécs Pogany

DERNIER METAR :
  • 280745Z 15006KT CAVOK 17/11 Q1006

METARs EXPIRÉS :
  • 280715Z 15008KT CAVOK 15/10 Q1007
  • 280645Z 15005KT CAVOK 15/10 Q1007
  • 280615Z 15004KT CAVOK 14/10 Q1006
  • 280545Z 14004KT CAVOK 14/10 Q1006
  • 280515Z 15005KT CAVOK 13/10 Q1007

TAF TAF LHPP
Valide du 28 à 06h jusqu'au 28 à 15h UTC


280500Z 2806/2815 15005KT CAVOK
BECMG 2807/2810 19012KT 7000 -RA SCT020 BKN040 OVC080
PROB40
TEMPO 2810/2815 20016G26KT 3000 SHRA TSRA BKN010 SCT015CB OVC020
Pas de NOTAMs connus pour ce terrain.



MET'MAP, la Météo Aéronautique d'un coup d'oeil ! - Copyright ORBIFLY Décembre 2007 - Disclaimer

ORBIFLY MET'MAP TEAM :

Programmation & Développement : Alexandra Zaïnal
Conception & Développement : Baudouin d'Aumeries
Co-Programmation & Développement : Marc-Olivier Méhu
Soutien technique & logistique : Manuel Goepfert

Contact : metmap@orbifly.com




SOURCES & CREDITS :

   NOAA